x

Ilm2 - 5 Miles Se Of Wrightsville Beach, Nc (41038) Weather Station

7:08 - Sat 27th May 2017 All times are EDT. -4 hours from GMT.

  • Wind
    9mph, 13mph gusts
  • Sea Temp 74°f
  • Aire Temp 73°f
  • Sea Pressure 1015.2mb
  • Ilm2 - 5 Miles Se Of Wrightsville Beach, Nc
  • Ilm2 - 5 Miles Se Of Wrightsville Beach, Nc

More Historic Weather Station data

Upgrade to MSW Pro to gain access to the past 30 days of data for over 8000 Wavebouys and Weather Stations around the globe.

Join Pro

Comparision Forecast

View Surf forecast
   
sáb 05/27 7:08 9 13 mph 1015.2mb 74f 73f
6:08 9 13 mph 1015.1mb 74f 73f
5:08 11 16 mph 1014.8mb 74f 73f
4:08 11 16 mph 1014.7mb 74f 73f
3:08 9 13 mph 1015mb 74f 73f
2:08 9 13 mph 1015mb 74f 74f
1:08 7 13 mph 1015.2mb 74f 74f
12:08 7 11 mph 1015.1mb 74f 74f
vie 05/26 11:08 11 16 mph 1014.9mb 74f 74f
10:08 11 16 mph 1013.9mb 74f 74f
9:08 13 20 mph 1013.4mb 74f 74f
8:08 16 25 mph 1013.3mb 74f 75f
7:08 16 25 mph 1012.7mb 74f 75f
6:08 18 29 mph 1012.7mb 74f 75f
5:08 18 29 mph 1012.3mb 74f 75f
4:08 16 27 mph 1012.3mb 74f 76f
3:08 13 22 mph 1013mb 74f 75f
2:08 18 29 mph 1012.9mb 74f 74f
1:08 7 13 mph 1013.3mb 74f 77f
12:08 11 16 mph 1013.7mb 74f 75f
11:08 9 13 mph 1014mb 74f 73f
10:08 9 16 mph 1014mb 74f 71f
9:08 13 22 mph 1014.1mb 73f 70f
8:08 16 25 mph 1013.8mb 73f 68f
7:08 20 29 mph 1013.1mb 73f 67f
6:08 18 29 mph 1012.4mb 73f 68f
5:08 22 34 mph 1011.5mb 73f 69f
4:08 18 29 mph 1011.2mb 73f 70f
3:08 25 34 mph 1010.3mb 73f 71f
2:08 18 31 mph 1010.5mb 73f 72f
1:08 18 27 mph 1010.4mb 73f 72f
12:08 18 29 mph 1010.1mb 74f 72f
jue 05/25 11:08 25 34 mph 1008.6mb 74f 72f
10:08 22 29 mph 1007.6mb 74f 72f
9:08 20 29 mph 1006.8mb 74f 72f
8:08 18 29 mph 1005.8mb 74f 73f
7:08 18 31 mph 1004.7mb 74f 73f
6:08 20 34 mph 1004.5mb 74f 72f
5:08 20 31 mph 1004.6mb 74f 69f
4:08 22 43 mph 1004.4mb 74f 66f
3:08 20 38 mph 1003.1mb 74f 73f
2:08 20 34 mph 1003.2mb 74f 73f
1:08 20 34 mph 1003.9mb 74f 73f
12:08 18 34 mph 1003.9mb 74f 73f
11:08 18 31 mph 1003.8mb 74f 73f
10:08 20 34 mph 1003.6mb 74f 74f
9:08 25 34 mph 1002.3mb 74f 73f
8:08 20 31 mph 1001.8mb 74f 74f
7:08 20 36 mph 1001.7mb 74f 75f
6:08 18 29 mph 1001mb 74f 74f
5:08 20 31 mph 1000.3mb 74f 75f
4:08 16 29 mph 1000.5mb 74f 75f
3:08 18 31 mph 1000.3mb 74f 75f
2:08 16 31 mph 1000.6mb 74f 75f
1:08 18 34 mph 1001mb 74f 75f
12:08 18 36 mph 1001.8mb 74f 74f
mié 05/24 11:08 16 29 mph 1002.5mb 74f 74f
10:08 22 31 mph 1002.6mb 74f 74f
9:08 16 29 mph 1003.3mb 75f 73f
8:08 16 29 mph 1003.3mb 75f 73f
7:08 11 20 mph 1003.4mb 75f 74f
6:08 18 29 mph 1004.1mb 75f 74f
5:08 16 25 mph 1003.6mb 75f 77f
4:08 11 18 mph 1003.8mb 75f 76f
3:08 13 20 mph 1005.1mb 75f 76f
2:08 16 22 mph 1005mb 75f 76f
1:08 9 18 mph 1005.2mb 75f 76f
12:08 9 18 mph 1005.5mb 74f 76f
11:08 2 4 mph 1005.6mb 74f 76f
10:08 4 7 mph 1005.5mb 74f 73f
9:08 4 7 mph 1007mb 74f 72f
8:08 7 13 mph 1006mb 74f 71f
7:08 11 20 mph 1005mb 74f 71f
6:08 11 18 mph 1004.5mb 74f 71f
5:08 11 18 mph 1004.6mb 74f 71f
4:08 13 20 mph 1004.9mb 74f 72f
3:08 16 22 mph 1004.5mb 74f 73f
2:08 13 20 mph 1004.8mb 74f 74f
1:08 11 20 mph 1005.3mb 74f 74f
12:08 11 22 mph 1005.8mb 74f 73f
mar 05/23 11:08 16 22 mph 1005.6mb 74f 72f
10:08 11 20 mph 1005.8mb 74f 72f
9:08 11 22 mph 1006.5mb 74f 73f
8:08 11 16 mph 1007.1mb 75f 74f
7:08 11 18 mph 1007.1mb 75f 74f
6:08 11 25 mph 1007mb 75f 73f
5:08 16 25 mph 1007.5mb 75f 75f
4:08 11 18 mph 1007.4mb 75f 75f
3:08 11 18 mph 1007.5mb 75f 76f
2:08 11 18 mph 1008.3mb 75f 76f
1:08 9 18 mph 1009.4mb 74f 75f
12:08 9 16 mph 1010.9mb 75f 74f